MNMG - Augusto C. Sandino Intl.
MNMG 050200Z 11008KT 9999 FEW020 29/21 Q1010 A2984 NOSIG
Observed:
Wind:
visibility:
Flight Rules:
Cloud Levels:
Temperature:
Humidity:
Pressure: